METAR Torp

ENTO 152320Z AUTO 22005KT 9999 NCD M00/M00 Q0991

METAR Gardermoen

ENGM 152320Z 20004KT 9999 FEW015 BKN180 M01/M01 Q0989

Webcam Kjeller